createdAt,value
2022-12-29T00:01:09.986Z,1.03
2022-12-29T00:03:57.069Z,1.00
2022-12-29T00:06:45.427Z,1.33
2022-12-29T00:09:32.197Z,1.47
2022-12-29T00:12:18.584Z,1.40
2022-12-29T00:15:22.957Z,1.23
2022-12-29T00:18:10.195Z,1.73
2022-12-29T00:21:14.772Z,2.57
2022-12-29T00:24:22.822Z,2.20
2022-12-29T00:27:31.983Z,0.70
2022-12-29T00:30:38.461Z,1.00
2022-12-29T00:33:48.048Z,0.80
2022-12-29T00:36:37.880Z,0.77
2022-12-29T00:39:43.571Z,1.43
2022-12-29T00:42:47.433Z,1.07
2022-12-29T00:45:34.217Z,0.90
2022-12-29T00:48:40.773Z,1.30
2022-12-29T00:51:26.006Z,1.30
2022-12-29T00:54:12.538Z,0.83
2022-12-29T00:57:00.539Z,1.10
2022-12-29T00:59:47.161Z,1.00
2022-12-29T01:02:33.723Z,0.83
2022-12-29T01:05:20.495Z,0.77
2022-12-29T01:08:07.175Z,0.97
2022-12-29T01:10:59.661Z,1.00
2022-12-29T01:13:47.631Z,2.30
2022-12-29T01:16:34.146Z,1.00
2022-12-29T01:19:21.444Z,1.23
2022-12-29T01:22:07.953Z,0.90
2022-12-29T01:24:54.437Z,0.77
2022-12-29T01:27:40.890Z,1.10
2022-12-29T01:30:28.810Z,1.40
2022-12-29T01:33:15.423Z,0.77
2022-12-29T01:36:02.366Z,1.10
2022-12-29T01:38:48.692Z,1.47
2022-12-29T01:41:35.090Z,0.70
2022-12-29T01:44:49.382Z,2.40
2022-12-29T01:47:41.724Z,0.60
2022-12-29T01:50:32.629Z,1.43
2022-12-29T01:53:25.440Z,1.10
2022-12-29T01:56:16.731Z,0.80
2022-12-29T01:59:07.445Z,0.63
2022-12-29T02:01:54.412Z,0.73
2022-12-29T02:04:45.946Z,0.77
2022-12-29T02:07:33.285Z,1.67
2022-12-29T02:10:21.316Z,0.77
2022-12-29T02:13:07.761Z,0.60
2022-12-29T02:16:04.932Z,0.73
2022-12-29T02:19:01.746Z,0.63
2022-12-29T02:21:58.596Z,0.67
2022-12-29T02:25:14.527Z,0.70
2022-12-29T02:28:20.084Z,0.37
2022-12-29T02:31:17.464Z,0.50
2022-12-29T02:34:12.617Z,1.07
2022-12-29T02:37:05.617Z,0.60
2022-12-29T02:39:59.621Z,0.40
2022-12-29T02:42:50.635Z,0.40
2022-12-29T02:45:41.137Z,0.70
2022-12-29T02:48:34.845Z,0.73
2022-12-29T02:51:28.365Z,0.50
2022-12-29T02:54:32.536Z,0.47
2022-12-29T02:57:32.144Z,0.37
2022-12-29T03:00:19.886Z,0.40
2022-12-29T03:03:22.099Z,0.50
2022-12-29T03:06:33.216Z,1.13
2022-12-29T03:09:27.910Z,0.43
2022-12-29T03:12:23.845Z,0.63
2022-12-29T03:15:32.619Z,0.40
2022-12-29T03:18:24.889Z,0.50
2022-12-29T03:21:16.407Z,0.50
2022-12-29T03:24:06.764Z,1.13
2022-12-29T03:26:56.393Z,0.40
2022-12-29T03:29:47.030Z,0.50
2022-12-29T03:32:37.106Z,0.47
2022-12-29T03:35:27.170Z,0.40
2022-12-29T03:38:18.477Z,0.37
2022-12-29T03:41:16.630Z,1.60
2022-12-29T03:44:03.351Z,1.00
2022-12-29T03:46:49.824Z,0.50
2022-12-29T03:49:36.409Z,0.47
2022-12-29T03:52:23.004Z,0.50
2022-12-29T03:55:10.174Z,0.30
2022-12-29T03:57:57.869Z,0.53
2022-12-29T04:00:44.538Z,0.70
2022-12-29T04:03:30.993Z,0.93
2022-12-29T04:06:18.042Z,0.50
2022-12-29T04:09:04.522Z,0.40
2022-12-29T04:11:51.367Z,0.30
2022-12-29T04:14:39.253Z,0.50
2022-12-29T04:17:25.585Z,0.50
2022-12-29T04:20:28.818Z,0.40
2022-12-29T04:23:15.543Z,0.50
2022-12-29T04:26:02.648Z,0.50
2022-12-29T04:28:49.081Z,0.33
2022-12-29T04:31:37.057Z,0.33
2022-12-29T04:34:23.629Z,0.40
2022-12-29T04:37:10.069Z,2.07
2022-12-29T04:39:56.497Z,2.47
2022-12-29T04:42:42.859Z,0.95
2022-12-29T04:45:29.322Z,0.47
2022-12-29T04:48:17.858Z,0.50
2022-12-29T04:51:04.813Z,0.43
2022-12-29T04:53:51.298Z,0.20
2022-12-29T04:56:37.740Z,0.60
2022-12-29T04:59:24.251Z,1.27
2022-12-29T05:02:11.108Z,1.27
2022-12-29T05:04:59.207Z,3.43
2022-12-29T05:07:45.797Z,2.63
2022-12-29T05:10:32.514Z,4.97
2022-12-29T05:13:19.108Z,0.90
2022-12-29T05:16:05.890Z,0.43
2022-12-29T05:18:52.627Z,1.00
2022-12-29T05:21:40.514Z,1.43
2022-12-29T05:24:27.247Z,0.60
2022-12-29T05:27:13.708Z,0.63
2022-12-29T05:30:00.230Z,3.37
2022-12-29T05:32:46.728Z,1.10
2022-12-29T05:35:34.060Z,0.50
2022-12-29T05:38:22.136Z,0.67
2022-12-29T05:41:08.887Z,0.63
2022-12-29T05:43:55.235Z,0.40
2022-12-29T05:46:41.723Z,1.43
2022-12-29T05:49:28.725Z,0.53
2022-12-29T05:52:14.996Z,1.50
2022-12-29T05:55:02.779Z,1.50
2022-12-29T05:57:49.130Z,4.13
2022-12-29T06:00:35.427Z,1.57
2022-12-29T06:03:21.837Z,2.83
2022-12-29T06:06:09.048Z,0.70
2022-12-29T06:08:55.502Z,0.87
2022-12-29T06:11:43.994Z,1.33
2022-12-29T06:14:30.672Z,0.50
2022-12-29T06:17:17.233Z,0.47
2022-12-29T06:20:04.203Z,1.90
2022-12-29T06:22:51.037Z,1.27
2022-12-29T06:25:37.684Z,1.00
2022-12-29T06:28:25.774Z,1.80
2022-12-29T06:31:12.642Z,1.77
2022-12-29T06:34:03.530Z,1.13
2022-12-29T06:36:53.122Z,0.20
2022-12-29T06:39:39.571Z,0.20
2022-12-29T06:42:26.268Z,0.30
2022-12-29T06:45:14.191Z,1.85
2022-12-29T06:48:00.838Z,1.30
2022-12-29T06:50:47.234Z,1.17
2022-12-29T06:53:33.793Z,1.50
2022-12-29T06:56:20.240Z,0.60
2022-12-29T06:59:06.619Z,1.37
2022-12-29T07:01:55.656Z,0.70
2022-12-29T07:04:42.547Z,2.97
2022-12-29T07:07:29.357Z,0.83
2022-12-29T07:10:15.882Z,1.20
2022-12-29T07:13:02.338Z,0.63
2022-12-29T07:15:48.728Z,0.63
2022-12-29T07:18:37.507Z,0.60
2022-12-29T07:21:24.268Z,1.67
2022-12-29T07:24:11.528Z,0.53
2022-12-29T07:26:57.876Z,1.50
2022-12-29T07:29:44.261Z,0.40
2022-12-29T07:32:34.200Z,0.40
2022-12-29T07:35:22.105Z,0.47
2022-12-29T07:38:08.362Z,0.63
2022-12-29T07:40:58.908Z,0.47
2022-12-29T07:43:49.061Z,1.20
2022-12-29T07:46:53.976Z,2.23
2022-12-29T07:49:41.493Z,0.80
2022-12-29T07:52:29.364Z,0.50
2022-12-29T07:55:16.225Z,0.53
2022-12-29T07:58:02.874Z,2.57
2022-12-29T08:00:49.180Z,1.90
2022-12-29T08:03:35.711Z,1.60
2022-12-29T08:06:23.259Z,3.67
2022-12-29T08:09:18.021Z,5.00
2022-12-29T08:12:11.951Z,1.00
2022-12-29T08:14:58.602Z,2.40
2022-12-29T08:17:45.000Z,3.10
2022-12-29T08:20:31.728Z,1.47
2022-12-29T08:23:18.389Z,1.33
2022-12-29T08:26:07.308Z,1.50
2022-12-29T08:28:55.295Z,5.53
2022-12-29T08:31:42.075Z,3.80
2022-12-29T08:34:28.983Z,2.33
2022-12-29T08:37:15.647Z,3.10
2022-12-29T08:40:04.685Z,2.57
2022-12-29T08:42:52.973Z,4.47
2022-12-29T08:45:39.553Z,2.47
2022-12-29T08:48:26.018Z,0.90
2022-12-29T08:51:13.255Z,1.57
2022-12-29T08:54:00.491Z,3.57
2022-12-29T08:56:47.291Z,0.83
2022-12-29T08:59:35.023Z,1.07
2022-12-29T09:02:24.371Z,2.03
2022-12-29T09:05:11.236Z,3.30
2022-12-29T09:07:57.955Z,4.97
2022-12-29T09:10:44.438Z,4.40
2022-12-29T09:13:30.798Z,2.80
2022-12-29T09:16:19.808Z,5.30
2022-12-29T09:19:06.660Z,3.00
2022-12-29T09:21:53.064Z,2.67
2022-12-29T09:24:39.490Z,3.37
2022-12-29T09:27:25.957Z,1.73
2022-12-29T09:30:15.549Z,3.90
2022-12-29T09:33:03.549Z,2.90
2022-12-29T09:35:54.094Z,5.30
2022-12-29T09:38:40.644Z,3.80
2022-12-29T09:41:33.278Z,3.13
2022-12-29T09:44:25.484Z,3.83
2022-12-29T09:47:15.518Z,4.00
2022-12-29T09:50:06.730Z,1.63
2022-12-29T09:53:00.640Z,1.97
2022-12-29T09:55:51.138Z,2.20
2022-12-29T09:58:41.750Z,2.27
2022-12-29T10:01:34.491Z,3.00
2022-12-29T10:04:21.303Z,1.77
2022-12-29T10:07:31.888Z,1.10
2022-12-29T10:10:28.175Z,2.13
2022-12-29T10:13:35.499Z,1.87
2022-12-29T10:16:28.636Z,3.57
2022-12-29T10:19:33.195Z,4.07
2022-12-29T10:22:33.398Z,3.07
2022-12-29T10:25:21.897Z,3.80
2022-12-29T10:28:17.903Z,3.53
2022-12-29T10:31:09.138Z,2.47
2022-12-29T10:34:00.619Z,2.33
2022-12-29T10:36:50.852Z,2.80
2022-12-29T10:39:45.594Z,2.13
2022-12-29T10:42:39.401Z,2.77
2022-12-29T10:45:30.332Z,1.73
2022-12-29T10:48:28.533Z,2.47
2022-12-29T10:51:25.098Z,1.33
2022-12-29T10:54:20.335Z,2.70
2022-12-29T10:57:13.582Z,5.70
2022-12-29T11:00:00.371Z,2.13
2022-12-29T11:03:19.928Z,3.80
2022-12-29T11:06:10.942Z,2.53
2022-12-29T11:09:00.520Z,2.63
2022-12-29T11:11:48.120Z,4.00
2022-12-29T11:14:36.439Z,1.77
2022-12-29T11:17:22.850Z,2.87
2022-12-29T11:20:33.032Z,3.50
2022-12-29T11:23:33.619Z,3.00
2022-12-29T11:26:26.375Z,1.87
2022-12-29T11:29:30.291Z,4.10
2022-12-29T11:32:28.528Z,2.90
2022-12-29T11:35:32.698Z,1.90
2022-12-29T11:38:24.082Z,4.47
2022-12-29T11:41:15.336Z,1.77
2022-12-29T11:44:04.521Z,4.00
2022-12-29T11:46:53.069Z,2.70
2022-12-29T11:49:41.277Z,3.40
2022-12-29T11:52:32.101Z,4.20
2022-12-29T11:55:21.552Z,3.70
2022-12-29T11:58:08.780Z,2.40
2022-12-29T12:00:55.549Z,3.27
2022-12-29T12:03:47.747Z,3.03
2022-12-29T12:06:40.249Z,2.80
2022-12-29T12:09:32.971Z,2.93
2022-12-29T12:12:25.932Z,2.77
2022-12-29T12:15:20.589Z,2.70
2022-12-29T12:18:13.590Z,1.97
2022-12-29T12:21:07.435Z,4.30
2022-12-29T12:24:06.352Z,4.13
2022-12-29T12:27:00.871Z,2.80
2022-12-29T12:29:54.699Z,2.67
2022-12-29T12:32:46.870Z,4.47
2022-12-29T12:35:44.126Z,3.67
2022-12-29T12:38:39.962Z,1.93
2022-12-29T12:41:40.657Z,6.13
2022-12-29T12:44:34.362Z,3.77
2022-12-29T12:47:42.041Z,6.27
2022-12-29T12:50:49.689Z,6.73
2022-12-29T12:53:51.350Z,3.30
2022-12-29T12:57:01.831Z,5.00
2022-12-29T12:59:58.388Z,3.47
2022-12-29T13:02:57.706Z,7.03
2022-12-29T13:06:04.216Z,3.47
2022-12-29T13:09:10.887Z,2.60
2022-12-29T13:12:09.266Z,3.07
2022-12-29T13:15:07.045Z,3.33
2022-12-29T13:17:58.463Z,5.53
2022-12-29T13:20:52.000Z,5.43
2022-12-29T13:23:44.418Z,6.37
2022-12-29T13:26:37.681Z,4.50
2022-12-29T13:29:35.191Z,3.70
2022-12-29T13:32:33.911Z,2.63
2022-12-29T13:35:36.995Z,2.47
2022-12-29T13:38:26.644Z,3.30
2022-12-29T13:41:18.139Z,4.97
2022-12-29T13:44:07.293Z,3.20
2022-12-29T13:46:58.470Z,3.30
2022-12-29T13:49:46.073Z,3.73
2022-12-29T13:52:39.963Z,2.63
2022-12-29T13:55:31.510Z,5.43
2022-12-29T13:58:26.774Z,2.83
2022-12-29T14:01:20.314Z,2.30
2022-12-29T14:04:14.374Z,3.27
2022-12-29T14:07:03.872Z,3.90
2022-12-29T14:09:52.644Z,3.77
2022-12-29T14:12:42.431Z,4.23
2022-12-29T14:15:29.080Z,2.03
2022-12-29T14:18:18.921Z,3.33
2022-12-29T14:21:13.732Z,5.63
2022-12-29T14:24:44.426Z,9.20
2022-12-29T14:27:53.921Z,4.77
2022-12-29T14:30:59.039Z,2.63
2022-12-29T14:34:26.741Z,5.80
2022-12-29T14:37:28.257Z,2.37
2022-12-29T14:40:19.960Z,2.27
2022-12-29T14:43:14.842Z,5.47
2022-12-29T14:46:03.406Z,3.13
2022-12-29T14:48:50.237Z,6.40
2022-12-29T14:51:38.632Z,1.60
2022-12-29T14:55:00.081Z,4.40
2022-12-29T14:57:50.798Z,1.30
2022-12-29T15:00:38.787Z,6.80
2022-12-29T15:03:27.429Z,9.87
2022-12-29T15:06:19.878Z,4.30
2022-12-29T15:09:15.616Z,2.33
2022-12-29T15:12:11.173Z,5.77
2022-12-29T15:15:03.330Z,2.87
2022-12-29T15:17:49.611Z,1.70
2022-12-29T15:20:36.295Z,3.70
2022-12-29T15:23:23.633Z,4.33
2022-12-29T15:26:11.282Z,4.70
2022-12-29T15:28:59.042Z,2.40
2022-12-29T15:31:49.800Z,5.90
2022-12-29T15:34:36.753Z,1.93
2022-12-29T15:37:26.985Z,3.00
2022-12-29T15:40:26.045Z,2.07
2022-12-29T15:43:47.336Z,3.00
2022-12-29T15:46:35.986Z,9.67
2022-12-29T15:49:28.849Z,3.87
2022-12-29T15:52:21.249Z,4.10
2022-12-29T15:55:20.147Z,4.40
2022-12-29T15:58:21.419Z,5.17
2022-12-29T16:01:20.152Z,5.60
2022-12-29T16:04:10.352Z,5.40
2022-12-29T16:06:59.045Z,4.07
2022-12-29T16:09:46.553Z,4.43
2022-12-29T16:12:36.179Z,4.47
2022-12-29T16:15:23.523Z,3.73
2022-12-29T16:18:24.568Z,8.83
2022-12-29T16:21:22.053Z,3.57
2022-12-29T16:24:14.498Z,6.17
2022-12-29T16:27:08.530Z,3.23
2022-12-29T16:29:56.894Z,4.83
2022-12-29T16:32:48.600Z,4.67
2022-12-29T16:35:47.545Z,6.53
2022-12-29T16:38:36.599Z,6.23
2022-12-29T16:41:31.855Z,5.60
2022-12-29T16:44:23.897Z,8.73
2022-12-29T16:47:22.894Z,5.70
2022-12-29T16:50:28.081Z,2.57
2022-12-29T16:53:22.351Z,6.13
2022-12-29T16:56:17.325Z,4.40
2022-12-29T16:59:06.999Z,4.77
2022-12-29T17:01:53.501Z,4.97
2022-12-29T17:04:40.386Z,5.83
2022-12-29T17:07:29.415Z,5.60
2022-12-29T17:10:17.258Z,2.47
2022-12-29T17:13:04.953Z,4.10
2022-12-29T17:15:51.716Z,5.60
2022-12-29T17:18:38.830Z,5.70
2022-12-29T17:21:25.411Z,7.70
2022-12-29T17:24:17.386Z,7.20
2022-12-29T17:27:05.186Z,8.40
2022-12-29T17:29:57.149Z,2.87
2022-12-29T17:32:45.489Z,6.67
2022-12-29T17:35:32.032Z,4.50
2022-12-29T17:38:21.163Z,5.97
2022-12-29T17:41:14.014Z,4.20
2022-12-29T17:44:02.075Z,5.93
2022-12-29T17:46:50.518Z,6.33
2022-12-29T17:49:37.124Z,5.40
2022-12-29T17:52:23.736Z,3.07
2022-12-29T17:55:16.363Z,6.13
2022-12-29T17:58:03.028Z,4.63
2022-12-29T18:00:50.972Z,1.93
2022-12-29T18:03:41.419Z,1.27
2022-12-29T18:06:28.203Z,7.90
2022-12-29T18:09:15.045Z,4.00
2022-12-29T18:12:01.249Z,3.07
2022-12-29T18:14:47.711Z,3.03
2022-12-29T18:17:34.113Z,1.87
2022-12-29T18:20:21.824Z,3.27
2022-12-29T18:23:14.522Z,3.23
2022-12-29T18:26:02.929Z,1.30
2022-12-29T18:28:50.955Z,1.47
2022-12-29T18:31:38.367Z,4.37
2022-12-29T18:34:24.846Z,5.03
2022-12-29T18:37:13.046Z,2.83
2022-12-29T18:39:59.850Z,4.17
2022-12-29T18:42:46.177Z,3.97
2022-12-29T18:45:34.420Z,4.83
2022-12-29T18:48:22.494Z,3.73
2022-12-29T18:51:15.467Z,4.67
2022-12-29T18:54:03.499Z,6.13
2022-12-29T18:56:49.943Z,4.53
2022-12-29T18:59:36.642Z,3.63
2022-12-29T19:02:23.501Z,10.83
2022-12-29T19:05:21.693Z,5.20
2022-12-29T19:08:09.832Z,4.37
2022-12-29T19:10:57.686Z,3.20
2022-12-29T19:13:44.265Z,2.40
2022-12-29T19:16:30.681Z,2.33
2022-12-29T19:19:18.212Z,4.53
2022-12-29T19:22:04.899Z,4.50
2022-12-29T19:24:54.943Z,3.80
2022-12-29T19:27:47.792Z,4.53
2022-12-29T19:30:34.956Z,3.30
2022-12-29T19:33:22.794Z,2.77
2022-12-29T19:36:10.621Z,2.87
2022-12-29T19:38:57.244Z,5.63
2022-12-29T19:41:43.661Z,3.63
2022-12-29T19:44:31.321Z,2.00
2022-12-29T19:47:20.790Z,2.43
2022-12-29T19:50:10.833Z,3.17
2022-12-29T19:53:04.820Z,1.23
2022-12-29T19:55:51.705Z,3.60
2022-12-29T19:58:43.908Z,4.27
2022-12-29T20:01:35.196Z,2.53
2022-12-29T20:04:22.197Z,3.43
2022-12-29T20:07:12.903Z,4.43
2022-12-29T20:10:04.078Z,2.63
2022-12-29T20:12:50.376Z,1.40
2022-12-29T20:15:36.786Z,2.77
2022-12-29T20:18:28.926Z,2.53
2022-12-29T20:21:18.520Z,3.47
2022-12-29T20:24:05.470Z,2.03
2022-12-29T20:26:53.058Z,3.40
2022-12-29T20:29:42.948Z,3.27
2022-12-29T20:32:29.614Z,4.60
2022-12-29T20:35:17.281Z,3.90
2022-12-29T20:38:03.731Z,4.27
2022-12-29T20:40:50.072Z,8.37
2022-12-29T20:43:36.420Z,12.77
2022-12-29T20:46:28.110Z,5.07
2022-12-29T20:49:19.381Z,7.23
2022-12-29T20:52:07.474Z,8.33
2022-12-29T20:54:53.992Z,7.70
2022-12-29T20:58:14.013Z,9.03
2022-12-29T21:00:47.526Z,4.70
2022-12-29T21:03:34.658Z,5.13
2022-12-29T21:06:21.506Z,4.03
2022-12-29T21:09:09.461Z,2.90
2022-12-29T21:11:56.082Z,2.80
2022-12-29T21:14:45.785Z,6.03
2022-12-29T21:17:32.511Z,7.43
2022-12-29T21:20:20.623Z,3.60
2022-12-29T21:23:07.646Z,6.50
2022-12-29T21:25:56.025Z,4.27
2022-12-29T21:28:43.582Z,4.17
2022-12-29T21:31:32.852Z,4.27
2022-12-29T21:34:19.360Z,4.43
2022-12-29T21:37:05.780Z,5.43
2022-12-29T21:39:52.200Z,4.37
2022-12-29T21:42:39.911Z,4.73
2022-12-29T21:45:25.469Z,8.27
2022-12-29T21:48:24.986Z,7.07
2022-12-29T21:51:32.801Z,7.23
2022-12-29T21:54:37.866Z,5.33
2022-12-29T21:57:53.485Z,8.67
2022-12-29T22:00:59.120Z,5.87
2022-12-29T22:04:03.253Z,11.60
2022-12-29T22:07:07.477Z,4.80
2022-12-29T22:10:12.093Z,6.77
2022-12-29T22:12:58.961Z,7.33
2022-12-29T22:15:46.692Z,4.87
2022-12-29T22:18:33.128Z,7.83
2022-12-29T22:21:20.401Z,7.60
2022-12-29T22:24:08.658Z,5.37
2022-12-29T22:26:55.022Z,6.93
2022-12-29T22:29:42.097Z,6.97
2022-12-29T22:32:29.828Z,8.27
2022-12-29T22:35:16.629Z,12.27
2022-12-29T22:38:03.081Z,6.80
2022-12-29T22:40:49.719Z,8.07
2022-12-29T22:43:36.102Z,14.97
2022-12-29T22:46:22.700Z,6.57
2022-12-29T22:49:10.467Z,5.10
2022-12-29T22:51:56.930Z,8.27
2022-12-29T22:54:43.432Z,10.27
2022-12-29T22:57:30.499Z,10.63
2022-12-29T23:00:17.482Z,7.43
2022-12-29T23:03:05.178Z,11.33
2022-12-29T23:05:59.411Z,8.20
2022-12-29T23:08:47.408Z,9.27
2022-12-29T23:11:34.518Z,12.70
2022-12-29T23:14:21.342Z,8.40
2022-12-29T23:17:07.824Z,10.90
2022-12-29T23:19:54.546Z,11.80
2022-12-29T23:22:42.400Z,10.27
2022-12-29T23:25:28.722Z,10.73
2022-12-29T23:28:15.258Z,11.33
2022-12-29T23:31:01.815Z,9.77
2022-12-29T23:33:48.789Z,11.40
2022-12-29T23:36:35.786Z,11.37
2022-12-29T23:39:24.880Z,9.33
2022-12-29T23:42:12.403Z,15.77
2022-12-29T23:44:59.306Z,10.17
2022-12-29T23:47:45.757Z,10.63
2022-12-29T23:50:32.382Z,13.70
2022-12-29T23:53:19.296Z,3.43
2022-12-29T23:56:09.053Z,10.70
2022-12-29T23:58:55.627Z,11.73
